Weather at Logan International Airport

Public forecast

Using degrees Fahrenheit for public forecast. Weather courtesy of forecast.io.

Current aviation weather report (METAR) for Logan International Airport

Retrieved 2021/05/11 17:54 UTC (50 minutes ago):

KBOS 111754Z 27010G22KT 10SM FEW060 FEW200 17/M05 A2990 RMK AO2 SLP125 T01721050 10183 20133 58011

Aviation forecast (TAF) for Logan International Airport

Retrieved 2021/05/11 18:22 UTC (22 minutes ago):

TAF KBOS 111720Z 1118/1224 27015G26KT P6SM FEW250 FM112300 27014G22KT P6SM SCT250 FM121100 28010G20KT P6SM SKC FM121500 32012G19KT P6SM FEW250 FM122300 31006KT P6SM SCT090